sensor_id;sensor_type;location;lat;lon;timestamp;P1;durP1;ratioP1;P2;durP2;ratioP2
65567;SDS011;52211;50.154;8.682;2023-04-15T00:01:51;4.70;;;4.07;;
65567;SDS011;52211;50.154;8.682;2023-04-15T00:04:18;5.37;;;3.83;;
65567;SDS011;52211;50.154;8.682;2023-04-15T00:06:49;5.13;;;4.00;;
65567;SDS011;52211;50.154;8.682;2023-04-15T00:09:18;5.07;;;4.37;;
65567;SDS011;52211;50.154;8.682;2023-04-15T00:11:46;7.13;;;4.20;;
65567;SDS011;52211;50.154;8.682;2023-04-15T00:14:15;4.30;;;3.90;;
65567;SDS011;52211;50.154;8.682;2023-04-15T00:16:47;4.63;;;4.23;;
65567;SDS011;52211;50.154;8.682;2023-04-15T00:19:24;4.43;;;4.03;;
65567;SDS011;52211;50.154;8.682;2023-04-15T00:21:53;6.97;;;4.93;;
65567;SDS011;52211;50.154;8.682;2023-04-15T00:24:20;4.83;;;4.33;;
65567;SDS011;52211;50.154;8.682;2023-04-15T00:26:51;6.67;;;4.53;;
65567;SDS011;52211;50.154;8.682;2023-04-15T00:29:18;5.43;;;4.37;;
65567;SDS011;52211;50.154;8.682;2023-04-15T00:31:45;5.07;;;4.57;;
65567;SDS011;52211;50.154;8.682;2023-04-15T00:34:16;6.47;;;4.50;;
65567;SDS011;52211;50.154;8.682;2023-04-15T00:36:49;6.77;;;4.80;;
65567;SDS011;52211;50.154;8.682;2023-04-15T00:39:18;4.43;;;4.03;;
65567;SDS011;52211;50.154;8.682;2023-04-15T00:41:46;5.53;;;5.00;;
65567;SDS011;52211;50.154;8.682;2023-04-15T00:44:15;6.03;;;5.00;;
65567;SDS011;52211;50.154;8.682;2023-04-15T00:46:43;5.00;;;4.50;;
65567;SDS011;52211;50.154;8.682;2023-04-15T00:49:15;5.17;;;4.37;;
65567;SDS011;52211;50.154;8.682;2023-04-15T00:51:43;6.93;;;4.77;;
65567;SDS011;52211;50.154;8.682;2023-04-15T00:54:13;6.30;;;4.70;;
65567;SDS011;52211;50.154;8.682;2023-04-15T00:56:47;5.93;;;4.23;;
65567;SDS011;52211;50.154;8.682;2023-04-15T00:59:16;4.30;;;3.90;;
65567;SDS011;52211;50.154;8.682;2023-04-15T01:01:49;5.40;;;4.90;;
65567;SDS011;52211;50.154;8.682;2023-04-15T01:04:17;4.80;;;4.30;;
65567;SDS011;52211;50.154;8.682;2023-04-15T01:06:46;5.87;;;5.27;;
65567;SDS011;52211;50.154;8.682;2023-04-15T01:09:15;9.03;;;4.70;;
65567;SDS011;52211;50.154;8.682;2023-04-15T01:11:45;5.73;;;4.90;;
65567;SDS011;52211;50.154;8.682;2023-04-15T01:14:12;6.47;;;4.97;;
65567;SDS011;52211;50.154;8.682;2023-04-15T01:16:45;6.23;;;5.10;;
65567;SDS011;52211;50.154;8.682;2023-04-15T01:19:12;5.47;;;4.90;;
65567;SDS011;52211;50.154;8.682;2023-04-15T01:21:46;5.67;;;5.13;;
65567;SDS011;52211;50.154;8.682;2023-04-15T01:24:17;5.93;;;4.73;;
65567;SDS011;52211;50.154;8.682;2023-04-15T01:26:45;5.50;;;5.00;;
65567;SDS011;52211;50.154;8.682;2023-04-15T01:29:14;5.17;;;4.40;;
65567;SDS011;52211;50.154;8.682;2023-04-15T01:31:50;5.43;;;4.90;;
65567;SDS011;52211;50.154;8.682;2023-04-15T01:34:24;5.10;;;4.57;;
65567;SDS011;52211;50.154;8.682;2023-04-15T01:36:52;5.17;;;4.13;;
65567;SDS011;52211;50.154;8.682;2023-04-15T01:39:20;5.50;;;5.07;;
65567;SDS011;52211;50.154;8.682;2023-04-15T01:41:50;5.90;;;4.20;;
65567;SDS011;52211;50.154;8.682;2023-04-15T01:44:22;7.10;;;4.83;;
65567;SDS011;52211;50.154;8.682;2023-04-15T01:46:52;5.50;;;4.37;;
65567;SDS011;52211;50.154;8.682;2023-04-15T01:49:21;5.87;;;4.23;;
65567;SDS011;52211;50.154;8.682;2023-04-15T01:51:49;3.87;;;3.60;;
65567;SDS011;52211;50.154;8.682;2023-04-15T01:54:15;4.50;;;3.93;;
65567;SDS011;52211;50.154;8.682;2023-04-15T01:56:43;4.30;;;3.90;;
65567;SDS011;52211;50.154;8.682;2023-04-15T01:59:09;4.70;;;4.13;;
65567;SDS011;52211;50.154;8.682;2023-04-15T02:01:39;4.80;;;3.93;;
65567;SDS011;52211;50.154;8.682;2023-04-15T02:04:10;8.10;;;3.93;;
65567;SDS011;52211;50.154;8.682;2023-04-15T02:06:42;5.80;;;5.20;;
65567;SDS011;52211;50.154;8.682;2023-04-15T02:09:12;5.43;;;3.90;;
65567;SDS011;52211;50.154;8.682;2023-04-15T02:11:44;5.83;;;3.70;;
65567;SDS011;52211;50.154;8.682;2023-04-15T02:14:14;4.73;;;4.03;;
65567;SDS011;52211;50.154;8.682;2023-04-15T02:16:45;4.47;;;4.07;;
65567;SDS011;52211;50.154;8.682;2023-04-15T02:19:19;6.03;;;3.97;;
65567;SDS011;52211;50.154;8.682;2023-04-15T02:21:49;4.13;;;3.63;;
65567;SDS011;52211;50.154;8.682;2023-04-15T02:24:19;5.40;;;4.07;;
65567;SDS011;52211;50.154;8.682;2023-04-15T02:26:46;4.30;;;3.90;;
65567;SDS011;52211;50.154;8.682;2023-04-15T02:29:15;5.23;;;4.37;;
65567;SDS011;52211;50.154;8.682;2023-04-15T02:31:44;4.10;;;3.70;;
65567;SDS011;52211;50.154;8.682;2023-04-15T02:34:15;6.73;;;4.10;;
65567;SDS011;52211;50.154;8.682;2023-04-15T02:36:44;4.70;;;4.00;;
65567;SDS011;52211;50.154;8.682;2023-04-15T02:39:16;4.30;;;4.00;;
65567;SDS011;52211;50.154;8.682;2023-04-15T02:41:44;5.63;;;3.80;;
65567;SDS011;52211;50.154;8.682;2023-04-15T02:44:17;6.23;;;4.57;;
65567;SDS011;52211;50.154;8.682;2023-04-15T02:46:54;3.93;;;3.40;;
65567;SDS011;52211;50.154;8.682;2023-04-15T02:49:20;3.73;;;3.37;;
65567;SDS011;52211;50.154;8.682;2023-04-15T02:51:48;4.70;;;4.30;;
65567;SDS011;52211;50.154;8.682;2023-04-15T02:54:18;4.70;;;4.10;;
65567;SDS011;52211;50.154;8.682;2023-04-15T02:56:51;5.57;;;3.90;;
65567;SDS011;52211;50.154;8.682;2023-04-15T02:59:20;5.57;;;4.40;;
65567;SDS011;52211;50.154;8.682;2023-04-15T03:01:48;5.20;;;3.80;;
65567;SDS011;52211;50.154;8.682;2023-04-15T03:04:17;4.43;;;3.53;;
65567;SDS011;52211;50.154;8.682;2023-04-15T03:06:46;7.10;;;4.43;;
65567;SDS011;52211;50.154;8.682;2023-04-15T03:09:13;4.30;;;3.90;;
65567;SDS011;52211;50.154;8.682;2023-04-15T03:11:41;4.43;;;4.03;;
65567;SDS011;52211;50.154;8.682;2023-04-15T03:14:10;3.60;;;3.37;;
65567;SDS011;52211;50.154;8.682;2023-04-15T03:16:41;4.33;;;3.93;;
65567;SDS011;52211;50.154;8.682;2023-04-15T03:19:07;4.53;;;3.67;;
65567;SDS011;52211;50.154;8.682;2023-04-15T03:21:37;4.27;;;3.87;;
65567;SDS011;52211;50.154;8.682;2023-04-15T03:24:04;4.73;;;4.33;;
65567;SDS011;52211;50.154;8.682;2023-04-15T03:26:33;4.50;;;4.10;;
65567;SDS011;52211;50.154;8.682;2023-04-15T03:29:09;4.00;;;3.60;;
65567;SDS011;52211;50.154;8.682;2023-04-15T03:31:38;6.70;;;4.20;;
65567;SDS011;52211;50.154;8.682;2023-04-15T03:34:04;5.33;;;4.13;;
65567;SDS011;52211;50.154;8.682;2023-04-15T03:36:31;5.40;;;4.70;;
65567;SDS011;52211;50.154;8.682;2023-04-15T03:38:58;4.70;;;4.30;;
65567;SDS011;52211;50.154;8.682;2023-04-15T03:41:27;5.80;;;4.30;;
65567;SDS011;52211;50.154;8.682;2023-04-15T03:44:00;5.70;;;4.03;;
65567;SDS011;52211;50.154;8.682;2023-04-15T03:46:29;4.50;;;4.10;;
65567;SDS011;52211;50.154;8.682;2023-04-15T03:48:56;5.47;;;4.97;;
65567;SDS011;52211;50.154;8.682;2023-04-15T03:51:25;6.80;;;4.67;;
65567;SDS011;52211;50.154;8.682;2023-04-15T03:53:52;5.47;;;4.10;;
65567;SDS011;52211;50.154;8.682;2023-04-15T03:56:23;4.60;;;4.20;;
65567;SDS011;52211;50.154;8.682;2023-04-15T03:58:52;9.57;;;4.43;;
65567;SDS011;52211;50.154;8.682;2023-04-15T04:01:21;6.20;;;5.07;;
65567;SDS011;52211;50.154;8.682;2023-04-15T04:03:53;5.13;;;4.70;;
65567;SDS011;52211;50.154;8.682;2023-04-15T04:06:22;8.60;;;5.47;;
65567;SDS011;52211;50.154;8.682;2023-04-15T04:08:49;4.67;;;4.10;;
65567;SDS011;52211;50.154;8.682;2023-04-15T04:11:23;6.40;;;4.50;;
65567;SDS011;52211;50.154;8.682;2023-04-15T04:13:55;6.00;;;4.70;;
65567;SDS011;52211;50.154;8.682;2023-04-15T04:16:32;5.77;;;4.33;;
65567;SDS011;52211;50.154;8.682;2023-04-15T04:18:59;5.77;;;5.03;;
65567;SDS011;52211;50.154;8.682;2023-04-15T04:21:30;6.50;;;5.23;;
65567;SDS011;52211;50.154;8.682;2023-04-15T04:23:59;6.07;;;4.87;;
65567;SDS011;52211;50.154;8.682;2023-04-15T04:26:26;5.60;;;5.00;;
65567;SDS011;52211;50.154;8.682;2023-04-15T04:28:53;5.60;;;5.10;;
65567;SDS011;52211;50.154;8.682;2023-04-15T04:31:19;7.23;;;5.03;;
65567;SDS011;52211;50.154;8.682;2023-04-15T04:33:49;6.13;;;4.80;;
65567;SDS011;52211;50.154;8.682;2023-04-15T04:36:16;4.20;;;3.90;;
65567;SDS011;52211;50.154;8.682;2023-04-15T04:38:45;5.33;;;4.37;;
65567;SDS011;52211;50.154;8.682;2023-04-15T04:41:15;4.70;;;4.30;;
65567;SDS011;52211;50.154;8.682;2023-04-15T04:43:44;4.60;;;4.20;;
65567;SDS011;52211;50.154;8.682;2023-04-15T04:46:13;3.80;;;3.37;;
65567;SDS011;52211;50.154;8.682;2023-04-15T04:48:43;4.83;;;4.33;;
65567;SDS011;52211;50.154;8.682;2023-04-15T04:51:12;4.57;;;4.10;;
65567;SDS011;52211;50.154;8.682;2023-04-15T04:53:41;9.17;;;4.60;;
65567;SDS011;52211;50.154;8.682;2023-04-15T04:56:11;6.40;;;4.40;;
65567;SDS011;52211;50.154;8.682;2023-04-15T04:58:38;7.43;;;4.40;;
65567;SDS011;52211;50.154;8.682;2023-04-15T05:01:07;6.23;;;4.33;;
65567;SDS011;52211;50.154;8.682;2023-04-15T05:03:39;4.67;;;3.97;;
65567;SDS011;52211;50.154;8.682;2023-04-15T05:06:08;5.70;;;4.47;;
65567;SDS011;52211;50.154;8.682;2023-04-15T05:08:38;4.77;;;4.33;;
65567;SDS011;52211;50.154;8.682;2023-04-15T05:11:07;5.67;;;4.03;;
65567;SDS011;52211;50.154;8.682;2023-04-15T05:13:39;5.70;;;4.93;;
65567;SDS011;52211;50.154;8.682;2023-04-15T05:16:08;4.83;;;4.07;;
65567;SDS011;52211;50.154;8.682;2023-04-15T05:18:40;7.40;;;4.43;;
65567;SDS011;52211;50.154;8.682;2023-04-15T05:21:09;6.93;;;4.60;;
65567;SDS011;52211;50.154;8.682;2023-04-15T05:23:36;4.13;;;3.73;;
65567;SDS011;52211;50.154;8.682;2023-04-15T05:26:03;4.27;;;3.93;;
65567;SDS011;52211;50.154;8.682;2023-04-15T05:28:35;5.00;;;4.50;;
65567;SDS011;52211;50.154;8.682;2023-04-15T05:31:06;4.93;;;4.40;;
65567;SDS011;52211;50.154;8.682;2023-04-15T05:33:33;5.73;;;3.97;;
65567;SDS011;52211;50.154;8.682;2023-04-15T05:36:01;4.33;;;3.97;;
65567;SDS011;52211;50.154;8.682;2023-04-15T05:38:28;5.97;;;4.50;;
65567;SDS011;52211;50.154;8.682;2023-04-15T05:40:55;4.87;;;4.03;;
65567;SDS011;52211;50.154;8.682;2023-04-15T05:43:22;5.03;;;3.70;;
65567;SDS011;52211;50.154;8.682;2023-04-15T05:45:49;8.63;;;5.00;;
65567;SDS011;52211;50.154;8.682;2023-04-15T05:48:16;4.87;;;4.43;;
65567;SDS011;52211;50.154;8.682;2023-04-15T05:50:50;4.60;;;4.20;;
65567;SDS011;52211;50.154;8.682;2023-04-15T05:53:20;5.47;;;4.33;;
65567;SDS011;52211;50.154;8.682;2023-04-15T05:55:47;4.63;;;4.20;;
65567;SDS011;52211;50.154;8.682;2023-04-15T05:58:16;5.47;;;4.30;;
65567;SDS011;52211;50.154;8.682;2023-04-15T06:00:43;4.93;;;4.43;;
65567;SDS011;52211;50.154;8.682;2023-04-15T06:03:12;5.07;;;4.60;;
65567;SDS011;52211;50.154;8.682;2023-04-15T06:05:42;4.90;;;4.40;;
65567;SDS011;52211;50.154;8.682;2023-04-15T06:08:16;4.33;;;3.93;;
65567;SDS011;52211;50.154;8.682;2023-04-15T06:10:44;4.53;;;4.13;;
65567;SDS011;52211;50.154;8.682;2023-04-15T06:13:16;4.73;;;4.20;;
65567;SDS011;52211;50.154;8.682;2023-04-15T06:15:42;3.90;;;3.60;;
65567;SDS011;52211;50.154;8.682;2023-04-15T06:18:14;5.13;;;3.80;;
65567;SDS011;52211;50.154;8.682;2023-04-15T06:20:45;5.83;;;4.23;;
65567;SDS011;52211;50.154;8.682;2023-04-15T06:23:14;4.90;;;4.50;;
65567;SDS011;52211;50.154;8.682;2023-04-15T06:25:48;4.43;;;4.03;;
65567;SDS011;52211;50.154;8.682;2023-04-15T06:28:17;6.70;;;4.03;;
65567;SDS011;52211;50.154;8.682;2023-04-15T06:30:44;5.47;;;3.93;;
65567;SDS011;52211;50.154;8.682;2023-04-15T06:33:13;5.23;;;4.57;;
65567;SDS011;52211;50.154;8.682;2023-04-15T06:35:43;4.97;;;4.57;;
65567;SDS011;52211;50.154;8.682;2023-04-15T06:38:14;5.70;;;4.43;;
65567;SDS011;52211;50.154;8.682;2023-04-15T06:40:46;4.90;;;4.40;;
65567;SDS011;52211;50.154;8.682;2023-04-15T06:43:18;4.97;;;4.53;;
65567;SDS011;52211;50.154;8.682;2023-04-15T06:45:45;6.07;;;4.20;;
65567;SDS011;52211;50.154;8.682;2023-04-15T06:48:12;5.10;;;4.70;;
65567;SDS011;52211;50.154;8.682;2023-04-15T06:50:46;4.80;;;4.37;;
65567;SDS011;52211;50.154;8.682;2023-04-15T06:53:16;4.60;;;4.20;;
65567;SDS011;52211;50.154;8.682;2023-04-15T06:55:44;5.17;;;4.77;;
65567;SDS011;52211;50.154;8.682;2023-04-15T06:58:11;5.73;;;4.77;;
65567;SDS011;52211;50.154;8.682;2023-04-15T07:00:37;5.00;;;4.30;;
65567;SDS011;52211;50.154;8.682;2023-04-15T07:03:07;5.00;;;4.50;;
65567;SDS011;52211;50.154;8.682;2023-04-15T07:05:38;6.60;;;4.87;;
65567;SDS011;52211;50.154;8.682;2023-04-15T07:08:06;5.10;;;4.60;;
65567;SDS011;52211;50.154;8.682;2023-04-15T07:10:35;5.60;;;4.37;;
65567;SDS011;52211;50.154;8.682;2023-04-15T07:13:07;4.87;;;4.47;;
65567;SDS011;52211;50.154;8.682;2023-04-15T07:15:36;4.17;;;3.80;;
65567;SDS011;52211;50.154;8.682;2023-04-15T07:18:03;4.97;;;4.53;;
65567;SDS011;52211;50.154;8.682;2023-04-15T07:20:30;4.97;;;4.40;;
65567;SDS011;52211;50.154;8.682;2023-04-15T07:23:01;4.73;;;4.33;;
65567;SDS011;52211;50.154;8.682;2023-04-15T07:25:33;4.67;;;4.20;;
65567;SDS011;52211;50.154;8.682;2023-04-15T07:28:02;5.13;;;4.73;;
65567;SDS011;52211;50.154;8.682;2023-04-15T07:30:31;4.67;;;4.20;;
65567;SDS011;52211;50.154;8.682;2023-04-15T07:33:00;4.43;;;4.13;;
65567;SDS011;52211;50.154;8.682;2023-04-15T07:35:30;4.13;;;3.70;;
65567;SDS011;52211;50.154;8.682;2023-04-15T07:37:59;4.70;;;4.07;;
65567;SDS011;52211;50.154;8.682;2023-04-15T07:40:29;4.40;;;3.97;;
65567;SDS011;52211;50.154;8.682;2023-04-15T07:42:58;5.50;;;4.67;;
65567;SDS011;52211;50.154;8.682;2023-04-15T07:45:27;4.73;;;4.30;;
65567;SDS011;52211;50.154;8.682;2023-04-15T07:47:59;4.97;;;4.47;;
65567;SDS011;52211;50.154;8.682;2023-04-15T07:50:30;4.80;;;4.30;;
65567;SDS011;52211;50.154;8.682;2023-04-15T07:53:02;4.53;;;4.13;;
65567;SDS011;52211;50.154;8.682;2023-04-15T07:55:29;5.07;;;4.30;;
65567;SDS011;52211;50.154;8.682;2023-04-15T07:57:58;5.20;;;4.80;;
65567;SDS011;52211;50.154;8.682;2023-04-15T08:00:27;7.00;;;4.97;;
65567;SDS011;52211;50.154;8.682;2023-04-15T08:02:57;4.33;;;3.90;;
65567;SDS011;52211;50.154;8.682;2023-04-15T08:05:26;6.97;;;4.70;;
65567;SDS011;52211;50.154;8.682;2023-04-15T08:07:55;5.90;;;4.67;;
65567;SDS011;52211;50.154;8.682;2023-04-15T08:10:23;5.33;;;4.57;;
65567;SDS011;52211;50.154;8.682;2023-04-15T08:12:50;5.03;;;4.03;;
65567;SDS011;52211;50.154;8.682;2023-04-15T08:15:22;4.97;;;4.50;;
65567;SDS011;52211;50.154;8.682;2023-04-15T08:17:54;5.50;;;4.30;;
65567;SDS011;52211;50.154;8.682;2023-04-15T08:20:23;5.03;;;4.53;;
65567;SDS011;52211;50.154;8.682;2023-04-15T08:22:50;4.80;;;4.33;;
65567;SDS011;52211;50.154;8.682;2023-04-15T08:25:19;4.53;;;4.13;;
65567;SDS011;52211;50.154;8.682;2023-04-15T08:27:48;4.33;;;3.93;;
65567;SDS011;52211;50.154;8.682;2023-04-15T08:30:15;4.67;;;4.07;;
65567;SDS011;52211;50.154;8.682;2023-04-15T08:32:44;5.07;;;4.47;;
65567;SDS011;52211;50.154;8.682;2023-04-15T08:35:14;4.10;;;3.70;;
65567;SDS011;52211;50.154;8.682;2023-04-15T08:37:41;4.03;;;3.63;;
65567;SDS011;52211;50.154;8.682;2023-04-15T08:40:11;3.60;;;3.13;;
65567;SDS011;52211;50.154;8.682;2023-04-15T08:42:44;3.80;;;3.50;;
65567;SDS011;52211;50.154;8.682;2023-04-15T08:45:22;3.20;;;3.00;;
65567;SDS011;52211;50.154;8.682;2023-04-15T08:47:53;3.27;;;2.97;;
65567;SDS011;52211;50.154;8.682;2023-04-15T08:50:28;3.53;;;3.23;;
65567;SDS011;52211;50.154;8.682;2023-04-15T08:52:57;3.80;;;3.50;;
65567;SDS011;52211;50.154;8.682;2023-04-15T08:55:29;3.50;;;3.20;;
65567;SDS011;52211;50.154;8.682;2023-04-15T08:58:01;4.00;;;3.60;;
65567;SDS011;52211;50.154;8.682;2023-04-15T09:00:31;3.60;;;3.30;;
65567;SDS011;52211;50.154;8.682;2023-04-15T09:03:02;3.40;;;3.10;;
65567;SDS011;52211;50.154;8.682;2023-04-15T09:05:34;3.37;;;3.07;;
65567;SDS011;52211;50.154;8.682;2023-04-15T09:08:04;4.17;;;3.10;;
65567;SDS011;52211;50.154;8.682;2023-04-15T09:10:34;3.20;;;3.00;;
65567;SDS011;52211;50.154;8.682;2023-04-15T09:13:03;2.90;;;2.70;;
65567;SDS011;52211;50.154;8.682;2023-04-15T09:15:30;2.87;;;2.67;;
65567;SDS011;52211;50.154;8.682;2023-04-15T09:18:11;3.20;;;2.90;;
65567;SDS011;52211;50.154;8.682;2023-04-15T09:20:41;3.00;;;2.80;;
65567;SDS011;52211;50.154;8.682;2023-04-15T09:23:12;3.10;;;2.80;;
65567;SDS011;52211;50.154;8.682;2023-04-15T09:25:40;3.10;;;2.90;;
65567;SDS011;52211;50.154;8.682;2023-04-15T09:28:10;3.43;;;2.50;;
65567;SDS011;52211;50.154;8.682;2023-04-15T09:30:41;3.27;;;2.80;;
65567;SDS011;52211;50.154;8.682;2023-04-15T09:33:15;2.90;;;2.60;;
65567;SDS011;52211;50.154;8.682;2023-04-15T09:35:45;2.67;;;2.47;;
65567;SDS011;52211;50.154;8.682;2023-04-15T09:38:30;2.87;;;2.63;;
65567;SDS011;52211;50.154;8.682;2023-04-15T09:40:59;2.90;;;2.70;;
65567;SDS011;52211;50.154;8.682;2023-04-15T09:43:37;2.90;;;2.60;;
65567;SDS011;52211;50.154;8.682;2023-04-15T09:46:07;2.40;;;2.20;;
65567;SDS011;52211;50.154;8.682;2023-04-15T09:48:35;2.60;;;2.40;;
65567;SDS011;52211;50.154;8.682;2023-04-15T09:51:02;2.03;;;1.93;;
65567;SDS011;52211;50.154;8.682;2023-04-15T09:53:33;2.37;;;2.17;;
65567;SDS011;52211;50.154;8.682;2023-04-15T09:56:02;3.53;;;2.00;;
65567;SDS011;52211;50.154;8.682;2023-04-15T09:58:32;2.40;;;2.20;;
65567;SDS011;52211;50.154;8.682;2023-04-15T10:01:06;2.77;;;2.07;;
65567;SDS011;52211;50.154;8.682;2023-04-15T10:03:36;2.30;;;2.10;;
65567;SDS011;52211;50.154;8.682;2023-04-15T10:06:07;2.87;;;2.20;;
65567;SDS011;52211;50.154;8.682;2023-04-15T10:08:35;3.70;;;2.50;;
65567;SDS011;52211;50.154;8.682;2023-04-15T10:11:04;2.33;;;2.13;;
65567;SDS011;52211;50.154;8.682;2023-04-15T10:13:35;3.10;;;2.20;;
65567;SDS011;52211;50.154;8.682;2023-04-15T10:16:07;2.20;;;1.80;;
65567;SDS011;52211;50.154;8.682;2023-04-15T10:18:41;2.03;;;1.93;;
65567;SDS011;52211;50.154;8.682;2023-04-15T10:21:18;5.13;;;2.87;;
65567;SDS011;52211;50.154;8.682;2023-04-15T10:23:49;3.67;;;2.77;;
65567;SDS011;52211;50.154;8.682;2023-04-15T10:26:17;2.40;;;2.20;;
65567;SDS011;52211;50.154;8.682;2023-04-15T10:28:45;2.00;;;1.90;;
65567;SDS011;52211;50.154;8.682;2023-04-15T10:31:15;2.80;;;1.80;;
65567;SDS011;52211;50.154;8.682;2023-04-15T10:33:48;2.40;;;2.23;;
65567;SDS011;52211;50.154;8.682;2023-04-15T10:36:19;1.97;;;1.80;;
65567;SDS011;52211;50.154;8.682;2023-04-15T10:38:51;2.03;;;1.90;;
65567;SDS011;52211;50.154;8.682;2023-04-15T10:41:24;2.10;;;1.70;;
65567;SDS011;52211;50.154;8.682;2023-04-15T10:44:02;2.00;;;1.80;;
65567;SDS011;52211;50.154;8.682;2023-04-15T10:46:37;2.80;;;2.30;;
65567;SDS011;52211;50.154;8.682;2023-04-15T10:54:32;2.27;;;2.10;;
65567;SDS011;52211;50.154;8.682;2023-04-15T10:59:35;2.17;;;1.97;;
65567;SDS011;52211;50.154;8.682;2023-04-15T11:08:09;2.70;;;2.43;;
65567;SDS011;52211;50.154;8.682;2023-04-15T11:20:36;2.00;;;1.90;;
65567;SDS011;52211;50.154;8.682;2023-04-15T11:23:10;1.80;;;1.70;;
65567;SDS011;52211;50.154;8.682;2023-04-15T11:25:41;2.10;;;1.80;;
65567;SDS011;52211;50.154;8.682;2023-04-15T11:28:09;2.23;;;2.03;;
65567;SDS011;52211;50.154;8.682;2023-04-15T11:30:39;1.83;;;1.73;;
65567;SDS011;52211;50.154;8.682;2023-04-15T11:33:13;2.00;;;1.90;;
65567;SDS011;52211;50.154;8.682;2023-04-15T11:35:43;1.87;;;1.77;;
65567;SDS011;52211;50.154;8.682;2023-04-15T11:38:13;1.73;;;1.63;;
65567;SDS011;52211;50.154;8.682;2023-04-15T11:40:41;1.90;;;1.80;;
65567;SDS011;52211;50.154;8.682;2023-04-15T11:43:16;1.80;;;1.70;;
65567;SDS011;52211;50.154;8.682;2023-04-15T11:45:51;3.10;;;1.67;;
65567;SDS011;52211;50.154;8.682;2023-04-15T11:48:32;1.63;;;1.53;;
65567;SDS011;52211;50.154;8.682;2023-04-15T11:51:04;2.20;;;1.80;;
65567;SDS011;52211;50.154;8.682;2023-04-15T11:53:44;1.70;;;1.60;;
65567;SDS011;52211;50.154;8.682;2023-04-15T11:56:18;1.80;;;1.70;;
65567;SDS011;52211;50.154;8.682;2023-04-15T11:58:47;1.93;;;1.73;;
65567;SDS011;52211;50.154;8.682;2023-04-15T12:01:31;1.80;;;1.40;;
65567;SDS011;52211;50.154;8.682;2023-04-15T12:04:16;2.00;;;1.83;;
65567;SDS011;52211;50.154;8.682;2023-04-15T12:06:51;1.63;;;1.50;;
65567;SDS011;52211;50.154;8.682;2023-04-15T12:09:18;1.77;;;1.67;;
65567;SDS011;52211;50.154;8.682;2023-04-15T12:11:47;1.67;;;1.57;;
65567;SDS011;52211;50.154;8.682;2023-04-15T12:14:24;2.93;;;1.93;;
65567;SDS011;52211;50.154;8.682;2023-04-15T12:16:59;1.90;;;1.80;;
65567;SDS011;52211;50.154;8.682;2023-04-15T12:19:36;2.13;;;1.93;;
65567;SDS011;52211;50.154;8.682;2023-04-15T12:22:11;2.10;;;2.00;;
65567;SDS011;52211;50.154;8.682;2023-04-15T12:24:43;2.00;;;1.90;;
65567;SDS011;52211;50.154;8.682;2023-04-15T12:27:14;1.83;;;1.73;;
65567;SDS011;52211;50.154;8.682;2023-04-15T12:29:44;2.20;;;2.00;;
65567;SDS011;52211;50.154;8.682;2023-04-15T12:32:12;2.30;;;2.10;;
65567;SDS011;52211;50.154;8.682;2023-04-15T12:34:53;1.73;;;1.63;;
65567;SDS011;52211;50.154;8.682;2023-04-15T12:37:20;2.20;;;1.80;;
65567;SDS011;52211;50.154;8.682;2023-04-15T12:39:48;2.90;;;2.20;;
65567;SDS011;52211;50.154;8.682;2023-04-15T12:42:22;1.83;;;1.73;;
65567;SDS011;52211;50.154;8.682;2023-04-15T12:44:49;2.40;;;1.93;;
65567;SDS011;52211;50.154;8.682;2023-04-15T12:47:18;2.10;;;2.00;;
65567;SDS011;52211;50.154;8.682;2023-04-15T12:49:45;1.73;;;1.63;;
65567;SDS011;52211;50.154;8.682;2023-04-15T12:52:16;2.37;;;1.63;;
65567;SDS011;52211;50.154;8.682;2023-04-15T12:54:48;1.80;;;1.70;;
65567;SDS011;52211;50.154;8.682;2023-04-15T12:57:15;1.93;;;1.37;;
65567;SDS011;52211;50.154;8.682;2023-04-15T12:59:42;4.37;;;1.77;;
65567;SDS011;52211;50.154;8.682;2023-04-15T13:02:11;1.87;;;1.53;;
65567;SDS011;52211;50.154;8.682;2023-04-15T13:04:41;1.63;;;1.53;;
65567;SDS011;52211;50.154;8.682;2023-04-15T13:07:11;1.40;;;1.30;;
65567;SDS011;52211;50.154;8.682;2023-04-15T13:09:45;2.60;;;1.20;;
65567;SDS011;52211;50.154;8.682;2023-04-15T13:12:14;1.33;;;1.23;;
65567;SDS011;52211;50.154;8.682;2023-04-15T13:14:41;1.60;;;1.50;;
65567;SDS011;52211;50.154;8.682;2023-04-15T13:17:10;1.40;;;1.40;;
65567;SDS011;52211;50.154;8.682;2023-04-15T13:19:40;1.50;;;1.40;;
65567;SDS011;52211;50.154;8.682;2023-04-15T13:22:06;1.50;;;1.40;;
65567;SDS011;52211;50.154;8.682;2023-04-15T13:24:36;1.20;;;1.10;;
65567;SDS011;52211;50.154;8.682;2023-04-15T13:27:06;1.40;;;1.30;;
65567;SDS011;52211;50.154;8.682;2023-04-15T13:29:33;1.10;;;1.10;;
65567;SDS011;52211;50.154;8.682;2023-04-15T13:32:00;1.07;;;1.07;;
65567;SDS011;52211;50.154;8.682;2023-04-15T13:34:27;2.00;;;1.10;;
65567;SDS011;52211;50.154;8.682;2023-04-15T13:36:54;1.23;;;1.17;;
65567;SDS011;52211;50.154;8.682;2023-04-15T13:39:25;1.10;;;1.10;;
65567;SDS011;52211;50.154;8.682;2023-04-15T13:41:57;1.10;;;1.10;;
65567;SDS011;52211;50.154;8.682;2023-04-15T13:44:29;1.43;;;1.07;;
65567;SDS011;52211;50.154;8.682;2023-04-15T13:46:55;1.10;;;1.10;;
65567;SDS011;52211;50.154;8.682;2023-04-15T13:49:23;1.10;;;1.10;;
65567;SDS011;52211;50.154;8.682;2023-04-15T13:51:54;1.27;;;1.17;;
65567;SDS011;52211;50.154;8.682;2023-04-15T13:54:23;1.07;;;1.07;;
65567;SDS011;52211;50.154;8.682;2023-04-15T13:57:03;1.23;;;1.17;;
65567;SDS011;52211;50.154;8.682;2023-04-15T13:59:35;3.47;;;1.23;;
65567;SDS011;52211;50.154;8.682;2023-04-15T14:02:04;1.20;;;1.00;;
65567;SDS011;52211;50.154;8.682;2023-04-15T14:04:34;1.10;;;1.10;;
65567;SDS011;52211;50.154;8.682;2023-04-15T14:07:04;1.30;;;1.20;;
65567;SDS011;52211;50.154;8.682;2023-04-15T14:09:33;1.20;;;1.10;;
65567;SDS011;52211;50.154;8.682;2023-04-15T14:12:11;1.10;;;1.10;;
65567;SDS011;52211;50.154;8.682;2023-04-15T14:14:40;1.10;;;1.10;;
65567;SDS011;52211;50.154;8.682;2023-04-15T14:17:09;1.20;;;1.10;;
65567;SDS011;52211;50.154;8.682;2023-04-15T14:19:36;1.23;;;1.13;;
65567;SDS011;52211;50.154;8.682;2023-04-15T14:22:08;1.83;;;1.40;;
65567;SDS011;52211;50.154;8.682;2023-04-15T14:24:34;2.17;;;1.97;;
65567;SDS011;52211;50.154;8.682;2023-04-15T14:27:06;1.67;;;1.57;;
65567;SDS011;52211;50.154;8.682;2023-04-15T14:29:37;1.47;;;1.37;;
65567;SDS011;52211;50.154;8.682;2023-04-15T14:32:11;1.77;;;1.43;;
65567;SDS011;52211;50.154;8.682;2023-04-15T14:34:41;1.27;;;1.20;;
65567;SDS011;52211;50.154;8.682;2023-04-15T14:37:11;1.63;;;1.53;;
65567;SDS011;52211;50.154;8.682;2023-04-15T14:39:40;1.30;;;1.30;;
65567;SDS011;52211;50.154;8.682;2023-04-15T14:42:09;1.10;;;1.10;;
65567;SDS011;52211;50.154;8.682;2023-04-15T14:44:37;1.70;;;1.60;;
65567;SDS011;52211;50.154;8.682;2023-04-15T14:47:06;2.03;;;1.60;;
65567;SDS011;52211;50.154;8.682;2023-04-15T14:49:33;1.80;;;1.70;;
65567;SDS011;52211;50.154;8.682;2023-04-15T14:52:02;2.00;;;1.80;;
65567;SDS011;52211;50.154;8.682;2023-04-15T14:54:31;1.67;;;1.57;;
65567;SDS011;52211;50.154;8.682;2023-04-15T14:57:01;1.50;;;1.40;;
65567;SDS011;52211;50.154;8.682;2023-04-15T14:59:27;1.70;;;1.40;;
65567;SDS011;52211;50.154;8.682;2023-04-15T15:01:54;1.30;;;1.30;;
65567;SDS011;52211;50.154;8.682;2023-04-15T15:04:24;1.40;;;1.30;;
65567;SDS011;52211;50.154;8.682;2023-04-15T15:06:53;1.20;;;1.20;;
65567;SDS011;52211;50.154;8.682;2023-04-15T15:09:22;1.40;;;1.30;;
65567;SDS011;52211;50.154;8.682;2023-04-15T15:11:50;1.20;;;1.20;;
65567;SDS011;52211;50.154;8.682;2023-04-15T15:14:18;1.60;;;1.50;;
65567;SDS011;52211;50.154;8.682;2023-04-15T15:16:48;1.30;;;1.30;;
65567;SDS011;52211;50.154;8.682;2023-04-15T15:19:17;1.37;;;1.33;;
65567;SDS011;52211;50.154;8.682;2023-04-15T15:21:47;1.90;;;1.67;;
65567;SDS011;52211;50.154;8.682;2023-04-15T15:24:16;1.20;;;1.20;;
65567;SDS011;52211;50.154;8.682;2023-04-15T15:26:43;1.10;;;1.10;;
65567;SDS011;52211;50.154;8.682;2023-04-15T15:29:10;2.67;;;1.47;;